Terminal Aerodrome Forecast
Issued by NWS

Home | Current Version | Previous Version | Text Only | Print | Product List | Glossary Off
Versions: 1 2 3 4 5 6 7 8 9 10 11 12 13 14 15

000
FTUS43 KGRB 190500
TAFCWA
TAF
KCWA 190520Z 1906/2006 VRB03KT P6SM SKC
     FM191200 19003KT P6SM BKN200
     FM191500 21007KT P6SM SCT080 BKN150
     FM191900 21009G15KT P6SM VCSH BKN080 OVC150
     FM192300 22005KT P6SM BKN090 BKN200
      AMD LTD TO CLD VIS AND WIND TIL 191200=

USA.gov is the U.S. government's official web portal to all federal, state and local government web resources and services.